createdAt,value
2018-08-11T00:01:22.159Z,18.84
2018-08-11T00:03:50.338Z,18.83
2018-08-11T00:06:18.606Z,18.81
2018-08-11T00:08:46.849Z,18.89
2018-08-11T00:11:15.287Z,18.88
2018-08-11T00:13:43.375Z,18.83
2018-08-11T00:16:11.556Z,18.81
2018-08-11T00:18:39.679Z,18.79
2018-08-11T00:21:07.777Z,18.79
2018-08-11T00:23:35.858Z,18.76
2018-08-11T00:26:03.997Z,18.74
2018-08-11T00:28:32.075Z,18.68
2018-08-11T00:31:00.189Z,18.65
2018-08-11T00:33:28.234Z,18.62
2018-08-11T00:35:56.347Z,18.59
2018-08-11T00:38:24.419Z,18.62
2018-08-11T00:40:52.565Z,18.61
2018-08-11T00:43:20.728Z,18.58
2018-08-11T00:45:48.993Z,18.58
2018-08-11T00:48:17.065Z,18.52
2018-08-11T00:50:45.175Z,18.57
2018-08-11T00:53:13.253Z,18.53
2018-08-11T00:55:41.375Z,18.48
2018-08-11T00:58:09.442Z,18.44
2018-08-11T01:00:37.744Z,18.40
2018-08-11T01:03:06.092Z,18.35
2018-08-11T01:05:34.257Z,18.31
2018-08-11T01:08:02.346Z,18.27
2018-08-11T01:10:30.411Z,18.23
2018-08-11T01:12:58.495Z,18.18
2018-08-11T01:15:26.566Z,18.14
2018-08-11T01:17:54.678Z,18.06
2018-08-11T01:20:22.814Z,18.03
2018-08-11T01:22:51.058Z,18.03
2018-08-11T01:25:19.123Z,18.05
2018-08-11T01:27:47.238Z,18.07
2018-08-11T01:30:18.756Z,18.07
2018-08-11T01:32:46.843Z,18.06
2018-08-11T01:35:14.919Z,18.09
2018-08-11T01:37:43.923Z,18.13
2018-08-11T01:40:13.272Z,18.09
2018-08-11T01:42:42.464Z,18.06
2018-08-11T01:45:11.504Z,18.00
2018-08-11T01:47:40.107Z,18.00
2018-08-11T01:50:09.507Z,17.98
2018-08-11T01:52:37.933Z,17.94
2018-08-11T01:55:06.040Z,17.94
2018-08-11T01:57:34.147Z,17.95
2018-08-11T02:00:02.232Z,17.96
2018-08-11T02:02:30.383Z,18.01
2018-08-11T02:04:58.415Z,18.05
2018-08-11T02:07:26.479Z,18.05
2018-08-11T02:09:54.577Z,18.04
2018-08-11T02:12:22.618Z,18.02
2018-08-11T02:14:50.702Z,17.99
2018-08-11T02:17:18.763Z,18.00
2018-08-11T02:19:46.931Z,18.01
2018-08-11T02:22:14.988Z,18.00
2018-08-11T02:24:43.058Z,18.00
2018-08-11T02:27:11.263Z,18.01
2018-08-11T02:29:39.434Z,17.97
2018-08-11T02:32:07.512Z,17.98
2018-08-11T02:34:35.608Z,17.97
2018-08-11T02:37:03.707Z,17.99
2018-08-11T02:39:31.797Z,17.99
2018-08-11T02:41:59.852Z,17.97
2018-08-11T02:44:28.227Z,17.99
2018-08-11T02:46:56.327Z,17.84
2018-08-11T02:49:24.455Z,17.69
2018-08-11T02:51:53.091Z,17.48
2018-08-11T02:54:21.212Z,17.18
2018-08-11T02:56:49.418Z,16.91
2018-08-11T02:59:22.056Z,16.67
2018-08-11T03:01:50.240Z,16.46
2018-08-11T03:04:18.387Z,16.33
2018-08-11T03:06:46.712Z,16.24
2018-08-11T03:09:14.796Z,16.17
2018-08-11T03:11:42.934Z,16.09
2018-08-11T03:14:11.145Z,16.04
2018-08-11T03:16:39.111Z,16.00
2018-08-11T03:19:07.491Z,15.91
2018-08-11T03:21:35.561Z,15.83
2018-08-11T03:24:03.728Z,15.78
2018-08-11T03:26:31.835Z,15.69
2018-08-11T03:28:59.916Z,15.63
2018-08-11T03:31:28.007Z,15.35
2018-08-11T03:33:56.108Z,15.49
2018-08-11T03:36:24.260Z,15.39
2018-08-11T03:38:52.513Z,15.33
2018-08-11T03:41:20.674Z,15.27
2018-08-11T03:43:48.831Z,15.22
2018-08-11T03:46:16.898Z,15.19
2018-08-11T03:48:45.228Z,15.15
2018-08-11T03:51:13.288Z,15.09
2018-08-11T03:53:41.361Z,15.02
2018-08-11T03:56:09.454Z,14.96
2018-08-11T03:58:37.518Z,14.89
2018-08-11T04:01:05.627Z,14.87
2018-08-11T04:03:33.775Z,14.84
2018-08-11T04:06:01.854Z,14.77
2018-08-11T04:08:29.927Z,14.74
2018-08-11T04:10:58.072Z,14.72
2018-08-11T04:13:26.179Z,14.66
2018-08-11T04:15:54.263Z,14.64
2018-08-11T04:18:22.326Z,14.63
2018-08-11T04:20:50.423Z,14.58
2018-08-11T04:23:18.492Z,14.58
2018-08-11T04:25:46.600Z,14.62
2018-08-11T04:28:15.007Z,14.61
2018-08-11T04:30:43.063Z,14.60
2018-08-11T04:33:11.138Z,14.62
2018-08-11T04:35:39.255Z,14.61
2018-08-11T04:38:07.469Z,14.63
2018-08-11T04:40:35.519Z,14.65
2018-08-11T04:43:03.595Z,14.69
2018-08-11T04:45:31.920Z,14.76
2018-08-11T04:47:59.975Z,14.76
2018-08-11T04:50:28.052Z,14.78
2018-08-11T04:52:56.108Z,14.76
2018-08-11T04:55:24.194Z,14.75
2018-08-11T04:57:52.340Z,14.76
2018-08-11T05:00:20.443Z,14.75
2018-08-11T05:02:48.670Z,14.77
2018-08-11T05:05:17.049Z,14.84
2018-08-11T05:07:45.135Z,14.94
2018-08-11T05:10:13.175Z,14.96
2018-08-11T05:12:41.248Z,15.01
2018-08-11T05:15:09.447Z,15.44
2018-08-11T05:17:37.511Z,16.03
2018-08-11T05:20:05.579Z,16.99
2018-08-11T05:22:33.640Z,17.57
2018-08-11T05:25:01.709Z,18.26
2018-08-11T05:27:29.757Z,18.76
2018-08-11T05:29:57.831Z,18.70
2018-08-11T05:32:26.239Z,18.57
2018-08-11T05:34:55.040Z,18.71
2018-08-11T05:37:23.098Z,18.70
2018-08-11T05:39:51.438Z,18.60
2018-08-11T05:42:19.479Z,18.70
2018-08-11T05:44:47.540Z,18.48
2018-08-11T05:47:15.604Z,18.22
2018-08-11T05:49:43.639Z,17.95
2018-08-11T05:52:11.699Z,17.76
2018-08-11T05:54:39.792Z,17.61
2018-08-11T05:57:07.847Z,17.35
2018-08-11T05:59:35.896Z,17.24
2018-08-11T06:02:04.009Z,17.12
2018-08-11T06:04:32.105Z,17.09
2018-08-11T06:07:00.158Z,16.99
2018-08-11T06:09:28.220Z,16.93
2018-08-11T06:11:56.275Z,16.90
2018-08-11T06:14:24.354Z,16.90
2018-08-11T06:16:52.415Z,16.86
2018-08-11T06:19:20.490Z,16.79
2018-08-11T06:21:48.615Z,16.77
2018-08-11T06:24:16.675Z,16.79
2018-08-11T06:26:44.734Z,16.89
2018-08-11T06:29:12.807Z,16.96
2018-08-11T06:31:40.885Z,17.19
2018-08-11T06:34:08.961Z,17.22
2018-08-11T06:36:37.023Z,17.32
2018-08-11T06:39:09.213Z,17.43
2018-08-11T06:41:37.351Z,17.40
2018-08-11T06:44:05.455Z,17.45
2018-08-11T06:46:33.557Z,17.34
2018-08-11T06:49:01.644Z,17.24
2018-08-11T06:51:29.756Z,17.26
2018-08-11T06:53:57.860Z,17.20
2018-08-11T06:56:26.250Z,17.10
2018-08-11T06:58:54.310Z,17.19
2018-08-11T07:01:22.355Z,17.23
2018-08-11T07:03:50.637Z,17.37
2018-08-11T07:06:18.699Z,17.43
2018-08-11T07:08:46.774Z,17.56
2018-08-11T07:11:14.884Z,17.87
2018-08-11T07:13:42.932Z,18.49
2018-08-11T07:16:10.990Z,18.83
2018-08-11T07:18:39.085Z,19.26
2018-08-11T07:21:07.243Z,19.55
2018-08-11T07:23:35.343Z,19.90
2018-08-11T07:26:03.403Z,19.91
2018-08-11T07:28:31.448Z,19.77
2018-08-11T07:30:59.515Z,19.69
2018-08-11T07:33:27.568Z,20.05
2018-08-11T07:35:55.952Z,20.30
2018-08-11T07:38:23.970Z,20.43
2018-08-11T07:40:52.072Z,20.75
2018-08-11T07:43:20.427Z,20.76
2018-08-11T07:45:48.595Z,21.23
2018-08-11T07:48:21.280Z,21.49
2018-08-11T07:50:49.316Z,21.96
2018-08-11T07:53:17.455Z,21.67
2018-08-11T07:55:45.590Z,21.94
2018-08-11T07:58:13.659Z,22.60
2018-08-11T08:00:41.723Z,22.95
2018-08-11T08:03:09.756Z,23.18
2018-08-11T08:05:38.109Z,23.61
2018-08-11T08:08:06.207Z,23.87
2018-08-11T08:10:34.788Z,23.80
2018-08-11T08:13:02.880Z,24.25
2018-08-11T08:15:30.943Z,24.12
2018-08-11T08:17:59.292Z,23.94
2018-08-11T08:20:29.824Z,23.98
2018-08-11T08:22:59.909Z,23.54
2018-08-11T08:25:29.357Z,23.32
2018-08-11T08:27:59.158Z,22.88
2018-08-11T08:30:29.246Z,22.74
2018-08-11T08:32:58.550Z,23.18
2018-08-11T08:35:27.887Z,23.74
2018-08-11T08:37:58.706Z,23.63
2018-08-11T08:40:27.397Z,23.74
2018-08-11T08:42:56.366Z,23.43
2018-08-11T08:45:25.067Z,23.24
2018-08-11T08:47:53.948Z,23.00
2018-08-11T08:50:22.692Z,23.21
2018-08-11T08:52:52.721Z,23.54
2018-08-11T08:55:21.532Z,23.19
2018-08-11T08:57:50.374Z,23.33
2018-08-11T09:00:19.861Z,23.58
2018-08-11T09:02:49.025Z,23.63
2018-08-11T09:05:17.162Z,23.42
2018-08-11T09:07:45.422Z,22.97
2018-08-11T09:10:13.491Z,22.74
2018-08-11T09:12:41.537Z,23.22
2018-08-11T09:15:09.604Z,23.45
2018-08-11T09:17:37.637Z,23.69
2018-08-11T09:20:06.152Z,24.24
2018-08-11T09:22:34.239Z,24.61
2018-08-11T09:25:02.293Z,24.91
2018-08-11T09:27:30.385Z,25.24
2018-08-11T09:29:58.426Z,25.61
2018-08-11T09:32:26.482Z,25.61
2018-08-11T09:34:55.642Z,25.54
2018-08-11T09:37:23.745Z,25.04
2018-08-11T09:39:51.809Z,24.57
2018-08-11T09:42:19.920Z,24.09
2018-08-11T09:44:48.054Z,23.62
2018-08-11T09:47:16.150Z,23.15
2018-08-11T09:49:44.306Z,22.74
2018-08-11T09:52:12.413Z,22.33
2018-08-11T09:54:40.675Z,22.05
2018-08-11T09:57:08.759Z,21.79
2018-08-11T09:59:36.823Z,21.53
2018-08-11T10:02:21.185Z,21.36
2018-08-11T10:04:49.275Z,21.25
2018-08-11T10:07:17.400Z,21.36
2018-08-11T10:09:46.805Z,21.52
2018-08-11T10:12:15.505Z,21.46
2018-08-11T10:14:43.608Z,21.24
2018-08-11T10:17:11.670Z,21.31
2018-08-11T10:19:39.816Z,21.55
2018-08-11T10:22:07.895Z,21.83
2018-08-11T10:24:36.104Z,21.90
2018-08-11T10:27:04.156Z,22.00
2018-08-11T10:29:32.300Z,21.93
2018-08-11T10:32:00.423Z,22.15
2018-08-11T10:34:28.485Z,22.29
2018-08-11T10:36:56.627Z,22.40
2018-08-11T10:39:24.731Z,22.39
2018-08-11T10:41:52.772Z,22.52
2018-08-11T10:44:20.860Z,22.53
2018-08-11T10:46:48.930Z,22.55
2018-08-11T10:49:16.987Z,22.68
2018-08-11T10:51:45.108Z,22.82
2018-08-11T10:54:13.172Z,22.86
2018-08-11T10:56:41.426Z,22.76
2018-08-11T10:59:09.620Z,22.70
2018-08-11T11:01:37.683Z,22.68
2018-08-11T11:04:05.752Z,22.60
2018-08-11T11:06:33.880Z,22.55
2018-08-11T11:09:02.049Z,22.52
2018-08-11T11:11:30.535Z,22.53
2018-08-11T11:13:59.149Z,22.46
2018-08-11T11:16:27.265Z,22.41
2018-08-11T11:18:55.440Z,22.12
2018-08-11T11:21:23.731Z,21.86
2018-08-11T11:23:51.932Z,21.61
2018-08-11T11:26:20.096Z,21.53
2018-08-11T11:28:48.188Z,21.61
2018-08-11T11:31:16.240Z,21.70
2018-08-11T11:33:44.360Z,21.87
2018-08-11T11:36:12.429Z,22.03
2018-08-11T11:38:40.627Z,22.29
2018-08-11T11:41:08.735Z,22.44
2018-08-11T11:43:36.845Z,22.64
2018-08-11T11:46:04.953Z,22.74
2018-08-11T11:48:33.112Z,22.86
2018-08-11T11:51:01.180Z,22.86
2018-08-11T11:53:29.304Z,22.79
2018-08-11T11:55:57.528Z,22.76
2018-08-11T11:58:26.493Z,22.81
2018-08-11T12:00:54.571Z,22.89
2018-08-11T12:03:22.784Z,22.83
2018-08-11T12:05:50.936Z,22.87
2018-08-11T12:08:19.084Z,22.83
2018-08-11T12:10:47.152Z,22.87
2018-08-11T12:13:15.851Z,22.67
2018-08-11T12:15:43.902Z,22.92
2018-08-11T12:18:11.964Z,23.07
2018-08-11T12:20:40.182Z,23.20
2018-08-11T12:23:08.267Z,23.23
2018-08-11T12:25:36.690Z,23.23
2018-08-11T12:28:04.756Z,23.16
2018-08-11T12:30:32.833Z,23.22
2018-08-11T12:33:00.928Z,23.30
2018-08-11T12:35:28.984Z,23.22
2018-08-11T12:37:57.129Z,23.07
2018-08-11T12:40:25.216Z,23.11
2018-08-11T12:42:53.369Z,23.26
2018-08-11T12:45:21.553Z,23.34
2018-08-11T12:47:49.687Z,23.35
2018-08-11T12:50:17.885Z,23.30
2018-08-11T12:52:46.024Z,23.28
2018-08-11T12:55:14.084Z,23.12
2018-08-11T12:57:42.182Z,22.97
2018-08-11T13:00:10.772Z,22.92
2018-08-11T13:02:39.152Z,22.90
2018-08-11T13:05:07.313Z,23.02
2018-08-11T13:07:35.427Z,23.22
2018-08-11T13:10:03.555Z,23.41
2018-08-11T13:12:31.929Z,23.55
2018-08-11T13:15:00.308Z,23.70
2018-08-11T13:17:28.378Z,23.84
2018-08-11T13:19:56.500Z,23.96
2018-08-11T13:22:24.619Z,24.03
2018-08-11T13:24:52.724Z,24.14
2018-08-11T13:27:20.809Z,23.96
2018-08-11T13:29:48.852Z,23.65
2018-08-11T13:32:17.307Z,23.63
2018-08-11T13:34:45.355Z,23.50
2018-08-11T13:37:13.439Z,23.33
2018-08-11T13:39:46.754Z,23.17
2018-08-11T13:42:14.831Z,23.10
2018-08-11T13:44:42.887Z,23.11
2018-08-11T13:47:10.975Z,23.04
2018-08-11T13:49:39.059Z,23.02
2018-08-11T13:52:07.151Z,22.94
2018-08-11T13:54:35.266Z,23.03
2018-08-11T13:57:03.414Z,23.08
2018-08-11T13:59:31.485Z,23.15
2018-08-11T14:01:59.535Z,23.16
2018-08-11T14:04:27.607Z,23.16
2018-08-11T14:06:55.734Z,23.14
2018-08-11T14:09:23.804Z,23.19
2018-08-11T14:11:51.979Z,23.29
2018-08-11T14:14:20.075Z,23.42
2018-08-11T14:16:48.197Z,23.51
2018-08-11T14:19:16.291Z,23.54
2018-08-11T14:21:44.340Z,23.61
2018-08-11T14:24:12.389Z,23.68
2018-08-11T14:26:40.480Z,23.61
2018-08-11T14:29:08.539Z,23.63
2018-08-11T14:31:36.959Z,23.70
2018-08-11T14:34:05.025Z,23.86
2018-08-11T14:36:33.092Z,23.95
2018-08-11T14:39:02.199Z,23.84
2018-08-11T14:41:30.244Z,23.87
2018-08-11T14:43:58.291Z,23.75
2018-08-11T14:46:26.381Z,23.60
2018-08-11T14:48:54.779Z,23.49
2018-08-11T14:51:22.844Z,23.46
2018-08-11T14:53:50.894Z,23.56
2018-08-11T14:56:19.111Z,23.64
2018-08-11T14:58:47.135Z,23.66
2018-08-11T15:01:15.212Z,23.61
2018-08-11T15:03:43.509Z,23.54
2018-08-11T15:06:11.777Z,23.46
2018-08-11T15:08:39.855Z,23.37
2018-08-11T15:11:07.975Z,23.33
2018-08-11T15:13:36.256Z,23.34
2018-08-11T15:16:04.384Z,23.26
2018-08-11T15:18:32.624Z,23.28
2018-08-11T15:21:00.725Z,23.37
2018-08-11T15:23:28.800Z,23.42
2018-08-11T15:25:56.868Z,23.43
2018-08-11T15:28:25.368Z,23.41
2018-08-11T15:30:53.481Z,23.41
2018-08-11T15:33:21.571Z,23.37
2018-08-11T15:35:50.023Z,23.27
2018-08-11T15:38:18.184Z,23.22
2018-08-11T15:40:46.302Z,23.21
2018-08-11T15:43:14.395Z,23.23
2018-08-11T15:45:42.462Z,23.17
2018-08-11T15:48:10.547Z,23.09
2018-08-11T15:50:38.603Z,23.10
2018-08-11T15:53:06.780Z,23.08
2018-08-11T15:55:34.838Z,23.10
2018-08-11T15:58:02.924Z,23.21
2018-08-11T16:00:30.978Z,23.30
2018-08-11T16:02:59.484Z,23.36
2018-08-11T16:05:27.611Z,23.40
2018-08-11T16:07:55.755Z,23.43
2018-08-11T16:10:23.815Z,23.47
2018-08-11T16:12:51.950Z,23.43
2018-08-11T16:15:20.071Z,23.41
2018-08-11T16:17:48.319Z,23.35
2018-08-11T16:20:16.392Z,23.37
2018-08-11T16:22:44.525Z,23.40
2018-08-11T16:25:12.595Z,23.41
2018-08-11T16:27:40.663Z,23.34
2018-08-11T16:30:10.111Z,23.34
2018-08-11T16:32:38.423Z,23.36
2018-08-11T16:35:06.539Z,23.31
2018-08-11T16:37:35.015Z,23.23
2018-08-11T16:40:03.404Z,23.08
2018-08-11T16:42:31.468Z,23.15
2018-08-11T16:44:59.586Z,23.06
2018-08-11T16:47:27.690Z,23.15
2018-08-11T16:49:55.831Z,23.16
2018-08-11T16:52:23.938Z,23.17
2018-08-11T16:54:52.195Z,23.22
2018-08-11T16:57:20.537Z,23.24
2018-08-11T16:59:55.488Z,23.23
2018-08-11T17:02:23.698Z,23.11
2018-08-11T17:04:51.807Z,23.12
2018-08-11T17:07:20.117Z,23.10
2018-08-11T17:09:48.279Z,23.04
2018-08-11T17:12:16.433Z,23.04
2018-08-11T17:14:44.520Z,22.95
2018-08-11T17:17:12.709Z,22.87
2018-08-11T17:19:40.748Z,22.85
2018-08-11T17:22:08.787Z,22.78
2018-08-11T17:24:36.847Z,22.76
2018-08-11T17:27:04.963Z,22.73
2018-08-11T17:29:33.109Z,22.69
2018-08-11T17:32:01.213Z,22.67
2018-08-11T17:34:29.258Z,22.63
2018-08-11T17:36:57.632Z,22.61
2018-08-11T17:39:25.759Z,22.55
2018-08-11T17:41:53.844Z,22.55
2018-08-11T17:44:21.937Z,22.50
2018-08-11T17:46:50.273Z,22.42
2018-08-11T17:49:18.397Z,22.41
2018-08-11T17:51:46.504Z,22.36
2018-08-11T17:54:14.804Z,22.28
2018-08-11T17:56:42.875Z,22.26
2018-08-11T17:59:10.929Z,22.20
2018-08-11T18:01:39.390Z,22.16
2018-08-11T18:04:07.492Z,22.04
2018-08-11T18:06:35.578Z,21.96
2018-08-11T18:09:05.913Z,21.87
2018-08-11T18:11:33.983Z,21.76
2018-08-11T18:14:02.148Z,21.70
2018-08-11T18:16:30.241Z,21.65
2018-08-11T18:18:58.341Z,21.55
2018-08-11T18:21:26.474Z,21.49
2018-08-11T18:23:54.561Z,21.43
2018-08-11T18:26:22.615Z,21.40
2018-08-11T18:28:50.694Z,21.32
2018-08-11T18:31:18.785Z,21.26
2018-08-11T18:33:46.862Z,21.20
2018-08-11T18:36:14.924Z,21.13
2018-08-11T18:38:42.985Z,21.06
2018-08-11T18:41:11.160Z,21.00
2018-08-11T18:43:39.213Z,20.92
2018-08-11T18:46:07.287Z,20.82
2018-08-11T18:48:35.401Z,20.73
2018-08-11T18:51:03.922Z,20.64
2018-08-11T18:53:32.662Z,20.55
2018-08-11T18:56:00.961Z,20.46
2018-08-11T18:58:29.612Z,20.37
2018-08-11T19:00:58.078Z,20.27
2018-08-11T19:03:26.261Z,20.19
2018-08-11T19:05:54.343Z,20.11
2018-08-11T19:08:23.229Z,20.02
2018-08-11T19:10:51.527Z,19.96
2018-08-11T19:13:19.630Z,19.87
2018-08-11T19:15:48.097Z,19.78
2018-08-11T19:18:16.365Z,19.69
2018-08-11T19:20:44.982Z,19.62
2018-08-11T19:23:13.047Z,19.55
2018-08-11T19:25:41.223Z,19.47
2018-08-11T19:28:09.331Z,19.41
2018-08-11T19:30:37.404Z,19.34
2018-08-11T19:33:06.356Z,19.27
2018-08-11T19:35:34.490Z,19.22
2018-08-11T19:38:02.675Z,19.13
2018-08-11T19:40:30.784Z,19.06
2018-08-11T19:42:58.975Z,18.99
2018-08-11T19:45:27.473Z,18.91
2018-08-11T19:47:55.641Z,18.83
2018-08-11T19:50:23.793Z,18.75
2018-08-11T19:52:51.998Z,18.67
2018-08-11T19:55:20.181Z,18.60
2018-08-11T19:57:48.286Z,18.51
2018-08-11T20:00:16.389Z,18.42
2018-08-11T20:02:44.471Z,18.35
2018-08-11T20:05:12.864Z,18.28
2018-08-11T20:07:41.487Z,18.20
2018-08-11T20:10:09.568Z,18.14
2018-08-11T20:12:38.260Z,18.06
2018-08-11T20:15:08.217Z,17.99
2018-08-11T20:17:36.303Z,17.91
2018-08-11T20:20:05.864Z,17.84
2018-08-11T20:22:34.361Z,17.80
2018-08-11T20:25:02.600Z,17.75
2018-08-11T20:27:30.801Z,17.71
2018-08-11T20:29:59.192Z,17.67
2018-08-11T20:32:27.257Z,17.63
2018-08-11T20:34:55.360Z,17.58
2018-08-11T20:37:23.857Z,17.55
2018-08-11T20:39:52.212Z,17.49
2018-08-11T20:42:20.452Z,17.45
2018-08-11T20:44:48.672Z,17.41
2018-08-11T20:47:16.964Z,17.37
2018-08-11T20:49:45.068Z,17.32
2018-08-11T20:52:13.124Z,17.27
2018-08-11T20:54:41.203Z,17.23
2018-08-11T20:57:09.747Z,17.18
2018-08-11T20:59:37.867Z,17.15
2018-08-11T21:02:06.192Z,17.12
2018-08-11T21:04:34.431Z,17.08
2018-08-11T21:07:02.538Z,17.04
2018-08-11T21:09:30.634Z,17.01
2018-08-11T21:11:58.711Z,16.95
2018-08-11T21:14:26.787Z,16.92
2018-08-11T21:16:54.878Z,16.88
2018-08-11T21:19:23.447Z,16.83
2018-08-11T21:21:51.553Z,16.79
2018-08-11T21:24:19.719Z,16.76
2018-08-11T21:26:48.048Z,16.71
2018-08-11T21:29:16.117Z,16.67
2018-08-11T21:31:44.206Z,16.63
2018-08-11T21:34:12.248Z,16.58
2018-08-11T21:36:41.263Z,16.55
2018-08-11T21:39:12.053Z,16.50
2018-08-11T21:41:40.228Z,16.48
2018-08-11T21:44:08.752Z,16.45
2018-08-11T21:46:37.409Z,16.42
2018-08-11T21:49:05.928Z,16.37
2018-08-11T21:51:34.049Z,16.32
2018-08-11T21:54:02.143Z,16.28
2018-08-11T21:56:30.316Z,16.23
2018-08-11T21:58:58.363Z,16.16
2018-08-11T22:01:26.485Z,16.05
2018-08-11T22:03:54.907Z,16.01
2018-08-11T22:06:22.976Z,15.95
2018-08-11T22:08:51.113Z,15.90
2018-08-11T22:11:19.219Z,15.84
2018-08-11T22:13:47.317Z,15.79
2018-08-11T22:16:15.425Z,15.73
2018-08-11T22:18:43.540Z,15.67
2018-08-11T22:21:11.638Z,15.62
2018-08-11T22:23:39.709Z,15.58
2018-08-11T22:26:08.163Z,15.55
2018-08-11T22:28:36.274Z,15.48
2018-08-11T22:31:04.325Z,15.39
2018-08-11T22:33:32.698Z,15.32
2018-08-11T22:36:00.865Z,15.28
2018-08-11T22:38:29.057Z,15.25
2018-08-11T22:40:57.150Z,15.22
2018-08-11T22:43:25.514Z,15.18
2018-08-11T22:45:53.618Z,15.15
2018-08-11T22:48:21.748Z,15.11
2018-08-11T22:50:49.871Z,15.06
2018-08-11T22:53:17.991Z,15.05
2018-08-11T22:55:46.084Z,15.02
2018-08-11T22:58:14.314Z,14.99
2018-08-11T23:00:42.424Z,14.99
2018-08-11T23:03:10.505Z,14.97
2018-08-11T23:05:38.601Z,14.95
2018-08-11T23:08:06.856Z,14.93
2018-08-11T23:10:34.924Z,14.93
2018-08-11T23:13:03.017Z,14.89
2018-08-11T23:15:31.110Z,14.84
2018-08-11T23:17:59.201Z,14.79
2018-08-11T23:20:27.308Z,14.76
2018-08-11T23:22:55.427Z,14.71
2018-08-11T23:25:23.487Z,14.68
2018-08-11T23:27:51.557Z,14.68
2018-08-11T23:30:19.644Z,14.69
2018-08-11T23:32:47.738Z,14.68
2018-08-11T23:35:15.837Z,14.69
2018-08-11T23:37:43.907Z,14.71
2018-08-11T23:40:12.407Z,14.73
2018-08-11T23:42:40.737Z,14.83
2018-08-11T23:45:10.875Z,15.01
2018-08-11T23:47:39.827Z,15.14
2018-08-11T23:50:08.562Z,15.18
2018-08-11T23:52:36.664Z,15.21
2018-08-11T23:55:05.545Z,15.21
2018-08-11T23:57:33.886Z,15.20
